Time;durP1;ratioP1;P1;durP2;ratioP2;P2;SDS_P1;SDS_P2;PMS_P1;PMS_P2;Temp;Humidity;BMP_temperature;BMP_pressure;BME280_temperature;BME280_humidity;BME280_pressure;Samples;Min_cycle;Max_cycle;Signal;HPM_P1;HPM_P2
2022/09/18 00:01:18;;;;;;;4.40;2.90;;;;;;;;;;5039129;28;20722;-46
2022/09/18 00:03:45;;;;;;;3.47;2.93;;;;;;;;;;5041323;28;20417;-46
2022/09/18 00:06:12;;;;;;;7.13;2.90;;;;;;;;;;5039481;28;20452;-46
2022/09/18 00:08:38;;;;;;;13.87;3.77;;;;;;;;;;5038165;28;20406;-47
2022/09/18 00:11:06;;;;;;;6.23;2.67;;;;;;;;;;5034985;28;20851;-46
2022/09/18 00:13:33;;;;;;;15.70;5.07;;;;;;;;;;5045980;28;20409;-46
2022/09/18 00:15:59;;;;;;;6.03;3.97;;;;;;;;;;5044269;28;20428;-46
2022/09/18 00:18:25;;;;;;;7.13;3.50;;;;;;;;;;5033935;28;20545;-46
2022/09/18 00:20:51;;;;;;;7.63;3.50;;;;;;;;;;5043281;28;20827;-46
2022/09/18 00:23:16;;;;;;;8.53;3.03;;;;;;;;;;5046829;28;20405;-46
2022/09/18 00:25:42;;;;;;;16.50;3.67;;;;;;;;;;5035721;28;20457;-46
2022/09/18 00:28:08;;;;;;;9.57;3.80;;;;;;;;;;5039940;28;20760;-46
2022/09/18 00:30:34;;;;;;;10.03;3.90;;;;;;;;;;5048833;28;20843;-46
2022/09/18 00:33:00;;;;;;;10.60;4.63;;;;;;;;;;5034290;28;20410;-46
2022/09/18 00:35:26;;;;;;;8.60;4.03;;;;;;;;;;5037465;28;20508;-46
2022/09/18 00:37:52;;;;;;;5.90;4.40;;;;;;;;;;5054089;28;20453;-46
2022/09/18 00:40:18;;;;;;;10.53;4.67;;;;;;;;;;5051752;28;20408;-46
2022/09/18 00:42:44;;;;;;;12.90;5.00;;;;;;;;;;5034378;28;21031;-46
2022/09/18 00:45:11;;;;;;;10.50;5.37;;;;;;;;;;5047194;28;20410;-46
2022/09/18 00:47:46;;;;;;;10.63;5.37;;;;;;;;;;5053788;28;20421;-46
2022/09/18 00:50:15;;;;;;;11.37;5.63;;;;;;;;;;5040330;28;20421;-46
2022/09/18 00:52:44;;;;;;;9.87;4.67;;;;;;;;;;5053785;28;20466;-46
2022/09/18 00:55:10;;;;;;;10.57;4.63;;;;;;;;;;5051844;28;20433;-46
2022/09/18 00:57:40;;;;;;;13.17;5.83;;;;;;;;;;5043456;28;20429;-46
2022/09/18 01:00:11;;;;;;;10.33;5.07;;;;;;;;;;5046863;28;20821;-46
2022/09/18 01:02:37;;;;;;;9.20;4.97;;;;;;;;;;5039518;28;20487;-46
2022/09/18 01:05:03;;;;;;;11.77;5.80;;;;;;;;;;5047597;28;20414;-46
2022/09/18 01:07:35;;;;;;;6.90;4.93;;;;;;;;;;5034217;28;20824;-46
2022/09/18 01:10:10;;;;;;;14.93;4.90;;;;;;;;;;5048865;28;20893;-46
2022/09/18 01:12:54;;;;;;;11.60;5.00;;;;;;;;;;5037458;28;20418;-46
2022/09/18 01:15:40;;;;;;;12.43;4.47;;;;;;;;;;5033631;28;20430;-46
2022/09/18 01:18:24;;;;;;;11.83;4.60;;;;;;;;;;5044745;28;20459;-46
2022/09/18 01:20:50;;;;;;;13.67;4.97;;;;;;;;;;5037874;28;20455;-46
2022/09/18 01:23:19;;;;;;;15.17;6.10;;;;;;;;;;5043760;28;20407;-46
2022/09/18 01:26:04;;;;;;;9.93;4.43;;;;;;;;;;5033346;28;20769;-46
2022/09/18 01:28:43;;;;;;;7.70;5.47;;;;;;;;;;5046608;28;20485;-46
2022/09/18 01:31:13;;;;;;;6.97;4.97;;;;;;;;;;5048662;28;20965;-46
2022/09/18 01:33:46;;;;;;;12.40;5.90;;;;;;;;;;5033235;28;20445;-46
2022/09/18 01:36:14;;;;;;;16.70;5.40;;;;;;;;;;5043470;28;20538;-46
2022/09/18 01:38:47;;;;;;;7.73;5.13;;;;;;;;;;5033940;28;20826;-46
2022/09/18 01:41:24;;;;;;;8.37;5.37;;;;;;;;;;5034632;28;20418;-46
2022/09/18 01:43:58;;;;;;;8.80;5.00;;;;;;;;;;5039309;28;20410;-46
2022/09/18 01:46:24;;;;;;;9.07;5.17;;;;;;;;;;5049576;28;20436;-46
2022/09/18 01:48:55;;;;;;;11.50;5.70;;;;;;;;;;5042109;28;20770;-46
2022/09/18 01:51:26;;;;;;;9.80;5.70;;;;;;;;;;5044971;28;20450;-46
2022/09/18 01:53:58;;;;;;;9.37;5.90;;;;;;;;;;5046112;28;20414;-46
2022/09/18 01:56:33;;;;;;;12.23;7.33;;;;;;;;;;5052628;28;20428;-46
2022/09/18 01:59:01;;;;;;;10.40;6.33;;;;;;;;;;5036102;28;21062;-46
2022/09/18 02:01:28;;;;;;;13.73;6.60;;;;;;;;;;5032727;28;20503;-46
2022/09/18 02:03:56;;;;;;;11.83;6.60;;;;;;;;;;5041917;28;20410;-46
2022/09/18 02:06:32;;;;;;;6.47;4.97;;;;;;;;;;5038342;28;20430;-46
2022/09/18 02:08:59;;;;;;;11.93;5.73;;;;;;;;;;5034543;28;20448;-46
2022/09/18 02:11:25;;;;;;;12.30;5.80;;;;;;;;;;5040849;28;20461;-46
2022/09/18 02:14:05;;;;;;;16.80;6.90;;;;;;;;;;5047588;28;20461;-46
2022/09/18 02:16:38;;;;;;;11.00;6.20;;;;;;;;;;5032451;28;20418;-46
2022/09/18 02:19:07;;;;;;;15.80;5.43;;;;;;;;;;5037058;28;20480;-46
2022/09/18 02:21:34;;;;;;;12.93;6.40;;;;;;;;;;5042002;28;20501;-46
2022/09/18 02:24:03;;;;;;;12.83;5.30;;;;;;;;;;5037633;28;20417;-46
2022/09/18 02:26:30;;;;;;;9.93;5.17;;;;;;;;;;5035757;28;20434;-46
2022/09/18 02:28:57;;;;;;;11.80;6.03;;;;;;;;;;5047179;28;20414;-46
2022/09/18 02:31:23;;;;;;;11.50;6.50;;;;;;;;;;5051192;28;20405;-46
2022/09/18 02:33:52;;;;;;;14.10;6.10;;;;;;;;;;5049824;28;20820;-46
2022/09/18 02:36:18;;;;;;;7.83;5.33;;;;;;;;;;5036532;28;20434;-46
2022/09/18 02:38:53;;;;;;;11.87;6.03;;;;;;;;;;5040299;28;20531;-46
2022/09/18 02:41:38;;;;;;;14.93;5.40;;;;;;;;;;5034774;28;20418;-46
2022/09/18 02:44:18;;;;;;;14.93;5.40;;;;;;;;;;5041277;28;20465;-46
2022/09/18 02:46:54;;;;;;;14.73;6.10;;;;;;;;;;5032545;28;20840;-46
2022/09/18 02:49:39;;;;;;;13.60;6.43;;;;;;;;;;5040894;28;20409;-46
2022/09/18 02:52:13;;;;;;;10.27;7.10;;;;;;;;;;5050382;28;20411;-46
2022/09/18 02:54:53;;;;;;;8.37;6.83;;;;;;;;;;5031710;28;20491;-46
2022/09/18 02:57:21;;;;;;;9.90;6.90;;;;;;;;;;5035005;28;20931;-46
2022/09/18 02:59:50;;;;;;;13.13;7.37;;;;;;;;;;5045049;28;21026;-46
2022/09/18 03:02:16;;;;;;;15.50;8.83;;;;;;;;;;5039969;28;20436;-46
2022/09/18 03:04:42;;;;;;;9.07;7.30;;;;;;;;;;5048122;28;20866;-46
2022/09/18 03:07:08;;;;;;;21.73;7.70;;;;;;;;;;5048016;28;20783;-46
2022/09/18 03:09:34;;;;;;;14.00;8.00;;;;;;;;;;5041763;28;20445;-46
2022/09/18 03:12:01;;;;;;;18.60;8.83;;;;;;;;;;5051311;28;20449;-46
2022/09/18 03:14:27;;;;;;;11.47;8.23;;;;;;;;;;5049701;28;20987;-46
2022/09/18 03:16:53;;;;;;;12.67;9.40;;;;;;;;;;5051468;28;20467;-46
2022/09/18 03:19:19;;;;;;;17.03;8.67;;;;;;;;;;5043928;28;20868;-46
2022/09/18 03:21:45;;;;;;;14.60;8.70;;;;;;;;;;5040016;28;20409;-47
2022/09/18 03:24:12;;;;;;;28.13;9.73;;;;;;;;;;5046313;28;20406;-46
2022/09/18 03:26:38;;;;;;;14.73;8.73;;;;;;;;;;5031515;28;20410;-46
2022/09/18 03:29:08;;;;;;;17.70;8.60;;;;;;;;;;5031771;28;20540;-46
2022/09/18 03:31:34;;;;;;;12.47;7.93;;;;;;;;;;5035321;28;20608;-46
2022/09/18 03:34:00;;;;;;;9.73;7.30;;;;;;;;;;5031172;28;20395;-46
2022/09/18 03:36:26;;;;;;;14.80;7.73;;;;;;;;;;5045562;28;20510;-47
2022/09/18 03:38:52;;;;;;;15.00;7.50;;;;;;;;;;5030610;28;20966;-47
2022/09/18 03:41:18;;;;;;;17.43;9.47;;;;;;;;;;5044491;28;20917;-46
2022/09/18 03:43:44;;;;;;;9.97;7.60;;;;;;;;;;5051767;28;20416;-46
2022/09/18 03:46:10;;;;;;;15.33;8.60;;;;;;;;;;5038705;28;20434;-46
2022/09/18 03:48:36;;;;;;;13.13;8.30;;;;;;;;;;5034941;28;20781;-46
2022/09/18 03:51:03;;;;;;;13.07;8.87;;;;;;;;;;5033096;28;20427;-46
2022/09/18 03:53:29;;;;;;;16.53;8.10;;;;;;;;;;5043034;28;20551;-46
2022/09/18 03:55:55;;;;;;;16.73;8.17;;;;;;;;;;5031088;28;20492;-46
2022/09/18 03:58:21;;;;;;;14.90;8.37;;;;;;;;;;5042851;28;20507;-46
2022/09/18 04:00:47;;;;;;;20.13;8.33;;;;;;;;;;5045853;28;20414;-46
2022/09/18 04:03:14;;;;;;;12.07;8.57;;;;;;;;;;5031069;28;20429;-46
2022/09/18 04:05:42;;;;;;;12.13;8.53;;;;;;;;;;5034399;28;20700;-46
2022/09/18 04:08:11;;;;;;;15.90;7.70;;;;;;;;;;5031016;28;20417;-46
2022/09/18 04:10:38;;;;;;;14.70;8.90;;;;;;;;;;5048792;28;20479;-46
2022/09/18 04:13:05;;;;;;;19.47;7.73;;;;;;;;;;5051019;28;20417;-46
2022/09/18 04:15:31;;;;;;;16.97;8.00;;;;;;;;;;5034617;28;20421;-46
2022/09/18 04:17:57;;;;;;;15.17;7.27;;;;;;;;;;5052003;28;20527;-46
2022/09/18 04:20:23;;;;;;;13.03;8.00;;;;;;;;;;5037203;28;20419;-46
2022/09/18 04:22:49;;;;;;;12.80;7.97;;;;;;;;;;5034713;28;20454;-46
2022/09/18 04:25:15;;;;;;;15.37;8.33;;;;;;;;;;5049207;28;20441;-46
2022/09/18 04:27:41;;;;;;;14.00;8.57;;;;;;;;;;5054430;28;20413;-46
2022/09/18 04:30:07;;;;;;;17.23;9.10;;;;;;;;;;5039915;28;20444;-46
2022/09/18 04:32:33;;;;;;;11.43;7.33;;;;;;;;;;5034780;28;20875;-46
2022/09/18 04:34:59;;;;;;;15.40;8.70;;;;;;;;;;5046618;28;20417;-46
2022/09/18 04:37:25;;;;;;;16.70;8.20;;;;;;;;;;5053671;28;20911;-46
2022/09/18 04:39:51;;;;;;;11.60;7.73;;;;;;;;;;5042400;28;20575;-46
2022/09/18 04:42:17;;;;;;;12.10;8.37;;;;;;;;;;5034427;28;20418;-46
2022/09/18 04:44:43;;;;;;;16.33;8.97;;;;;;;;;;5044086;28;20428;-46
2022/09/18 04:47:09;;;;;;;21.00;9.43;;;;;;;;;;5054182;28;20892;-46
2022/09/18 04:49:35;;;;;;;17.53;8.77;;;;;;;;;;5048273;28;20505;-46
2022/09/18 04:52:01;;;;;;;12.60;9.20;;;;;;;;;;5046428;28;20413;-46
2022/09/18 04:54:27;;;;;;;16.77;9.70;;;;;;;;;;5053989;28;20409;-46
2022/09/18 04:56:53;;;;;;;12.83;9.10;;;;;;;;;;5052912;28;20445;-46
2022/09/18 04:59:19;;;;;;;14.37;9.47;;;;;;;;;;5052856;28;20457;-46
2022/09/18 05:01:45;;;;;;;20.23;10.30;;;;;;;;;;5039754;28;20976;-46
2022/09/18 05:04:11;;;;;;;16.00;9.87;;;;;;;;;;5033902;28;20394;-46
2022/09/18 05:06:37;;;;;;;14.63;9.53;;;;;;;;;;5045626;28;20882;-46
2022/09/18 05:09:03;;;;;;;13.23;8.47;;;;;;;;;;5053118;28;20429;-46
2022/09/18 05:11:32;;;;;;;10.20;8.13;;;;;;;;;;5042048;28;20979;-46
2022/09/18 05:13:58;;;;;;;11.70;8.67;;;;;;;;;;5033473;28;20413;-46
2022/09/18 05:16:24;;;;;;;13.47;8.10;;;;;;;;;;5034455;28;20434;-46
2022/09/18 05:18:50;;;;;;;12.73;7.87;;;;;;;;;;5032780;28;20464;-46
2022/09/18 05:21:16;;;;;;;10.83;7.63;;;;;;;;;;5034661;28;20410;-46
2022/09/18 05:23:47;;;;;;;12.63;7.17;;;;;;;;;;5033559;28;20501;-46
2022/09/18 05:26:14;;;;;;;17.10;6.83;;;;;;;;;;5041393;28;20479;-46
2022/09/18 05:28:40;;;;;;;15.13;6.43;;;;;;;;;;5052267;28;20760;-46
2022/09/18 05:31:06;;;;;;;16.33;7.03;;;;;;;;;;5051660;28;20413;-46
2022/09/18 05:33:32;;;;;;;21.43;6.83;;;;;;;;;;5053258;28;20409;-46
2022/09/18 05:35:58;;;;;;;8.73;6.23;;;;;;;;;;5046668;28;20466;-46
2022/09/18 05:38:25;;;;;;;15.77;6.77;;;;;;;;;;5039241;28;20457;-46
2022/09/18 05:40:51;;;;;;;9.20;6.83;;;;;;;;;;5033067;28;20452;-46
2022/09/18 05:43:17;;;;;;;6.87;6.17;;;;;;;;;;5033804;28;20399;-46
2022/09/18 05:45:43;;;;;;;8.33;5.60;;;;;;;;;;5033288;28;20412;-46
2022/09/18 05:48:11;;;;;;;9.70;6.23;;;;;;;;;;5032732;28;20406;-46
2022/09/18 05:50:37;;;;;;;9.20;5.60;;;;;;;;;;5052004;28;20413;-46
2022/09/18 05:53:12;;;;;;;8.20;5.30;;;;;;;;;;5052916;28;20402;-46
2022/09/18 05:55:38;;;;;;;10.20;5.77;;;;;;;;;;5051362;28;20505;-46
2022/09/18 05:58:05;;;;;;;6.47;4.20;;;;;;;;;;5052319;28;20929;-46
2022/09/18 06:00:33;;;;;;;14.40;4.47;;;;;;;;;;5034217;28;20410;-46
2022/09/18 06:03:00;;;;;;;7.60;4.90;;;;;;;;;;5032754;28;20555;-46
2022/09/18 06:05:27;;;;;;;6.37;3.90;;;;;;;;;;5033761;28;20862;-46
2022/09/18 06:07:53;;;;;;;7.80;5.50;;;;;;;;;;5032325;28;20454;-46
2022/09/18 06:10:19;;;;;;;8.30;5.57;;;;;;;;;;5047605;28;20420;-46
2022/09/18 06:12:45;;;;;;;9.30;6.77;;;;;;;;;;5052621;28;20407;-46
2022/09/18 06:15:12;;;;;;;12.60;6.30;;;;;;;;;;5036648;28;20815;-46
2022/09/18 06:17:39;;;;;;;11.97;6.70;;;;;;;;;;5031961;28;20422;-46
2022/09/18 06:20:07;;;;;;;11.70;7.60;;;;;;;;;;5045319;28;20508;-46
2022/09/18 06:22:33;;;;;;;10.37;7.17;;;;;;;;;;5052888;28;20400;-46
2022/09/18 06:24:59;;;;;;;9.80;7.63;;;;;;;;;;5038820;28;20418;-46
2022/09/18 06:27:25;;;;;;;10.03;7.40;;;;;;;;;;5032049;28;20414;-47
2022/09/18 06:29:52;;;;;;;9.50;7.97;;;;;;;;;;5043253;28;20428;-46
2022/09/18 06:32:19;;;;;;;11.17;8.90;;;;;;;;;;5052237;28;20406;-50
2022/09/18 06:34:45;;;;;;;12.03;7.73;;;;;;;;;;5040723;28;20862;-49
2022/09/18 06:37:12;;;;;;;14.07;9.40;;;;;;;;;;5031807;28;20429;-48
2022/09/18 06:39:38;;;;;;;14.40;8.97;;;;;;;;;;5040421;28;20461;-48
2022/09/18 06:42:05;;;;;;;14.60;8.27;;;;;;;;;;5051754;28;20488;-45
2022/09/18 06:44:31;;;;;;;9.43;8.20;;;;;;;;;;5042594;28;20445;-48
2022/09/18 06:46:57;;;;;;;8.90;7.97;;;;;;;;;;5031957;28;20446;-47
2022/09/18 06:49:23;;;;;;;9.20;7.60;;;;;;;;;;5038375;28;20781;-46
2022/09/18 06:51:49;;;;;;;13.63;8.10;;;;;;;;;;5049385;28;20952;-46
2022/09/18 06:54:16;;;;;;;11.20;7.70;;;;;;;;;;5039383;28;20428;-47
2022/09/18 06:56:43;;;;;;;9.20;7.90;;;;;;;;;;5035761;28;20445;-46
2022/09/18 06:59:09;;;;;;;10.90;8.00;;;;;;;;;;5030925;28;20458;-49
2022/09/18 07:01:35;;;;;;;14.07;8.30;;;;;;;;;;5046076;28;20435;-49
2022/09/18 07:04:01;;;;;;;9.20;7.30;;;;;;;;;;5051784;28;20406;-49
2022/09/18 07:06:28;;;;;;;8.43;7.57;;;;;;;;;;5038475;28;20439;-49
2022/09/18 07:08:55;;;;;;;8.00;6.50;;;;;;;;;;5030773;28;20909;-48
2022/09/18 07:11:20;;;;;;;8.37;7.40;;;;;;;;;;5043638;28;20425;-48
2022/09/18 07:13:46;;;;;;;10.80;7.43;;;;;;;;;;5051678;28;20415;-48
2022/09/18 07:16:13;;;;;;;7.73;6.93;;;;;;;;;;5048875;28;20929;-46
2022/09/18 07:18:39;;;;;;;11.87;8.53;;;;;;;;;;5050523;28;20514;-47
2022/09/18 07:21:05;;;;;;;11.10;8.07;;;;;;;;;;5039560;28;20425;-47
2022/09/18 07:23:32;;;;;;;13.30;7.90;;;;;;;;;;5031577;28;20495;-48
2022/09/18 07:25:59;;;;;;;9.50;7.23;;;;;;;;;;5032540;28;20781;-46
2022/09/18 07:28:25;;;;;;;10.53;7.53;;;;;;;;;;5030692;28;20412;-44
2022/09/18 07:30:51;;;;;;;16.37;7.07;;;;;;;;;;5040909;28;20930;-49
2022/09/18 07:33:17;;;;;;;12.87;7.37;;;;;;;;;;5051490;28;20453;-48
2022/09/18 07:35:43;;;;;;;11.23;7.93;;;;;;;;;;5049471;28;20414;-46
2022/09/18 07:38:09;;;;;;;11.33;6.67;;;;;;;;;;5050963;28;20481;-47
2022/09/18 07:40:35;;;;;;;8.33;7.13;;;;;;;;;;5043623;28;20457;-47
2022/09/18 07:43:02;;;;;;;9.73;6.57;;;;;;;;;;5031450;28;20908;-48
2022/09/18 07:45:28;;;;;;;10.27;7.13;;;;;;;;;;5032440;28;20422;-48
2022/09/18 07:47:54;;;;;;;8.13;7.17;;;;;;;;;;5031128;28;20915;-47
2022/09/18 07:50:21;;;;;;;8.10;6.07;;;;;;;;;;5034837;28;20417;-49
2022/09/18 07:53:08;;;;;;;7.10;6.40;;;;;;;;;;5052422;28;20413;-47
2022/09/18 07:55:35;;;;;;;8.23;6.17;;;;;;;;;;5053153;28;20508;-48
2022/09/18 07:58:03;;;;;;;10.13;6.60;;;;;;;;;;5054833;28;20779;-48
2022/09/18 08:00:32;;;;;;;11.83;6.73;;;;;;;;;;5049378;28;20425;-46
2022/09/18 08:03:05;;;;;;;5.43;4.93;;;;;;;;;;5035018;28;20488;-46
2022/09/18 08:05:31;;;;;;;18.03;6.10;;;;;;;;;;5038469;28;20957;-47
2022/09/18 08:08:14;;;;;;;4.93;4.37;;;;;;;;;;5054723;28;20426;-48
2022/09/18 08:10:42;;;;;;;11.03;4.60;;;;;;;;;;5052439;28;20416;-48
2022/09/18 08:13:08;;;;;;;5.50;3.83;;;;;;;;;;5054767;28;20406;-48
2022/09/18 08:15:36;;;;;;;8.33;3.67;;;;;;;;;;5050357;28;20419;-48
2022/09/18 08:18:02;;;;;;;5.53;3.20;;;;;;;;;;5034539;28;20981;-49
2022/09/18 08:20:28;;;;;;;5.40;2.90;;;;;;;;;;5036373;28;20417;-48
2022/09/18 08:22:54;;;;;;;7.90;3.37;;;;;;;;;;5054373;28;20480;-49
2022/09/18 08:25:20;;;;;;;3.10;2.43;;;;;;;;;;5052245;28;20826;-49
2022/09/18 08:27:46;;;;;;;7.50;2.70;;;;;;;;;;5034533;28;20790;-48
2022/09/18 08:30:13;;;;;;;4.17;2.73;;;;;;;;;;5034079;28;20499;-47
2022/09/18 08:32:39;;;;;;;7.03;2.70;;;;;;;;;;5052638;28;20426;-49
2022/09/18 08:35:05;;;;;;;2.47;2.17;;;;;;;;;;5054287;28;20406;-50
2022/09/18 08:37:32;;;;;;;5.57;2.27;;;;;;;;;;5054291;28;20512;-49
2022/09/18 08:39:58;;;;;;;3.53;1.80;;;;;;;;;;5035250;28;20844;-48
2022/09/18 08:42:39;;;;;;;5.93;2.30;;;;;;;;;;5035120;28;20945;-49
2022/09/18 08:45:24;;;;;;;4.33;2.10;;;;;;;;;;5053869;28;21020;-49
2022/09/18 08:47:56;;;;;;;2.80;1.70;;;;;;;;;;5052206;28;20465;-49
2022/09/18 08:50:24;;;;;;;2.73;1.83;;;;;;;;;;5042576;28;20415;-49
2022/09/18 08:52:53;;;;;;;3.23;1.97;;;;;;;;;;5052545;28;20444;-47
2022/09/18 08:55:26;;;;;;;6.30;2.33;;;;;;;;;;5053960;28;20423;-49
2022/09/18 08:57:55;;;;;;;3.70;2.70;;;;;;;;;;5052643;28;20429;-49
2022/09/18 09:00:23;;;;;;;8.67;2.70;;;;;;;;;;5053197;28;20402;-50
2022/09/18 09:02:50;;;;;;;6.83;2.90;;;;;;;;;;5052566;28;20992;-49
2022/09/18 09:05:20;;;;;;;4.33;3.70;;;;;;;;;;5033457;28;20407;-49
2022/09/18 09:07:46;;;;;;;6.63;5.30;;;;;;;;;;5034328;28;20422;-46
2022/09/18 09:10:21;;;;;;;8.13;5.10;;;;;;;;;;5052882;28;20402;-49
2022/09/18 09:12:47;;;;;;;6.57;5.50;;;;;;;;;;5052798;28;20436;-49
2022/09/18 09:15:33;;;;;;;7.97;6.10;;;;;;;;;;5033789;28;20458;-47
2022/09/18 09:18:18;;;;;;;10.20;6.90;;;;;;;;;;5035883;28;20451;-50
2022/09/18 09:20:52;;;;;;;14.77;6.07;;;;;;;;;;5052839;28;20394;-49
2022/09/18 09:23:54;;;;;;;7.67;5.87;;;;;;;;;;5048470;28;20411;-46
2022/09/18 09:26:21;;;;;;;7.50;5.67;;;;;;;;;;5031040;28;20476;-47
2022/09/18 09:28:50;;;;;;;6.70;5.70;;;;;;;;;;5041002;28;20611;-48
2022/09/18 09:31:17;;;;;;;11.60;6.50;;;;;;;;;;5053189;28;20406;-46
2022/09/18 09:33:49;;;;;;;5.40;4.90;;;;;;;;;;5044998;28;20414;-48
2022/09/18 09:36:16;;;;;;;9.03;6.33;;;;;;;;;;5033209;28;20433;-49
2022/09/18 09:38:51;;;;;;;6.93;4.70;;;;;;;;;;5040497;28;20465;-46
2022/09/18 09:41:22;;;;;;;10.93;4.90;;;;;;;;;;5052995;28;20886;-49
2022/09/18 09:44:00;;;;;;;11.90;4.50;;;;;;;;;;5051542;28;20762;-49
2022/09/18 09:46:38;;;;;;;12.77;4.87;;;;;;;;;;5053028;28;20426;-49
2022/09/18 09:49:07;;;;;;;7.40;4.13;;;;;;;;;;5040808;28;20430;-49
2022/09/18 09:51:33;;;;;;;5.30;3.93;;;;;;;;;;5032791;28;20402;-49
2022/09/18 09:54:00;;;;;;;8.10;4.80;;;;;;;;;;5034026;28;20454;-48
2022/09/18 09:56:36;;;;;;;5.70;3.70;;;;;;;;;;5033139;28;20437;-49
2022/09/18 09:59:13;;;;;;;5.90;2.73;;;;;;;;;;5042309;28;20456;-47
2022/09/18 10:01:42;;;;;;;4.70;3.07;;;;;;;;;;5052177;28;20421;-48
2022/09/18 10:04:07;;;;;;;9.93;2.87;;;;;;;;;;5041384;28;20419;-50
2022/09/18 10:06:47;;;;;;;2.90;2.10;;;;;;;;;;5032413;28;20854;-50
2022/09/18 10:09:16;;;;;;;11.13;2.70;;;;;;;;;;5043370;28;20897;-47
2022/09/18 10:11:47;;;;;;;4.23;2.20;;;;;;;;;;5052127;28;20780;-50
2022/09/18 10:14:18;;;;;;;2.33;2.20;;;;;;;;;;5040843;28;20479;-49
2022/09/18 10:16:48;;;;;;;6.03;2.30;;;;;;;;;;5031754;28;20443;-48
2022/09/18 10:19:17;;;;;;;7.40;2.30;;;;;;;;;;5040195;28;20545;-48
2022/09/18 10:21:44;;;;;;;6.93;2.67;;;;;;;;;;5039773;28;21046;-49
2022/09/18 10:24:19;;;;;;;6.43;2.70;;;;;;;;;;5042655;28;20411;-49
2022/09/18 10:26:45;;;;;;;3.87;2.87;;;;;;;;;;5032155;28;20524;-48
2022/09/18 10:29:11;;;;;;;8.10;3.33;;;;;;;;;;5043310;28;20513;-50
2022/09/18 10:31:54;;;;;;;3.20;3.00;;;;;;;;;;5032113;28;20516;-48
2022/09/18 10:34:39;;;;;;;2.67;2.47;;;;;;;;;;5041559;28;20398;-49
2022/09/18 10:37:12;;;;;;;5.60;3.60;;;;;;;;;;5051842;28;20423;-49
2022/09/18 10:39:47;;;;;;;5.30;3.77;;;;;;;;;;5051060;28;20832;-48
2022/09/18 10:42:15;;;;;;;3.40;3.10;;;;;;;;;;5034126;28;20419;-49
2022/09/18 10:44:47;;;;;;;4.63;3.80;;;;;;;;;;5035438;28;20417;-47
2022/09/18 10:47:19;;;;;;;3.40;3.10;;;;;;;;;;5038551;28;20441;-48
2022/09/18 10:49:54;;;;;;;6.40;3.73;;;;;;;;;;5044491;28;20484;-48
2022/09/18 10:52:25;;;;;;;5.20;4.17;;;;;;;;;;5031625;28;20430;-48
2022/09/18 10:55:07;;;;;;;4.50;3.20;;;;;;;;;;5047671;28;20414;-49
2022/09/18 10:57:33;;;;;;;13.30;4.37;;;;;;;;;;5050018;28;20445;-46
2022/09/18 10:59:59;;;;;;;2.30;2.10;;;;;;;;;;5044347;28;20557;-46
2022/09/18 11:02:27;;;;;;;2.70;2.50;;;;;;;;;;5032929;28;20513;-47
2022/09/18 11:04:53;;;;;;;2.97;1.93;;;;;;;;;;5051051;28;20424;-48
2022/09/18 11:07:20;;;;;;;2.27;2.03;;;;;;;;;;5049805;28;20714;-48
2022/09/18 11:09:47;;;;;;;1.87;1.70;;;;;;;;;;5046054;28;20792;-48
2022/09/18 11:12:18;;;;;;;2.30;1.67;;;;;;;;;;5040754;28;20411;-49
2022/09/18 11:14:46;;;;;;;2.23;1.67;;;;;;;;;;5051056;28;20421;-47
2022/09/18 11:17:21;;;;;;;4.20;1.90;;;;;;;;;;5033777;28;20447;-47
2022/09/18 11:19:51;;;;;;;3.20;2.20;;;;;;;;;;5041509;28;20516;-48
2022/09/18 11:22:36;;;;;;;2.13;1.93;;;;;;;;;;5040930;28;20407;-50
2022/09/18 11:25:16;;;;;;;1.90;1.80;;;;;;;;;;5050485;28;20832;-49
2022/09/18 11:28:08;;;;;;;5.03;1.80;;;;;;;;;;5034183;28;20434;-50
2022/09/18 11:30:37;;;;;;;8.10;2.20;;;;;;;;;;5028265;28;20774;-49
2022/09/18 11:33:11;;;;;;;2.40;2.20;;;;;;;;;;5040248;28;20802;-49
2022/09/18 11:35:43;;;;;;;5.33;2.00;;;;;;;;;;5052149;28;20474;-48
2022/09/18 11:38:11;;;;;;;1.93;1.83;;;;;;;;;;5034517;28;21037;-48
2022/09/18 11:40:43;;;;;;;3.33;1.90;;;;;;;;;;5035574;28;20423;-48
2022/09/18 11:43:21;;;;;;;2.20;2.10;;;;;;;;;;5035362;28;20406;-49
2022/09/18 11:46:06;;;;;;;2.60;2.00;;;;;;;;;;5042628;28;20412;-48
2022/09/18 11:48:37;;;;;;;1.70;1.60;;;;;;;;;;5044267;28;20488;-49
2022/09/18 11:51:05;;;;;;;3.40;2.10;;;;;;;;;;5052926;28;20436;-50
2022/09/18 11:53:46;;;;;;;3.20;2.00;;;;;;;;;;5038058;28;20812;-48
2022/09/18 11:56:32;;;;;;;2.90;2.07;;;;;;;;;;5039424;28;20481;-48
2022/09/18 11:59:01;;;;;;;2.23;1.57;;;;;;;;;;5054154;28;20488;-47
2022/09/18 12:01:33;;;;;;;1.87;1.77;;;;;;;;;;5048508;28;20513;-49
2022/09/18 12:04:14;;;;;;;3.90;2.10;;;;;;;;;;5036295;28;20936;-48
2022/09/18 12:06:46;;;;;;;3.73;2.10;;;;;;;;;;5042037;28;20948;-48
2022/09/18 12:09:20;;;;;;;2.00;1.90;;;;;;;;;;5044108;28;20416;-48
2022/09/18 12:11:56;;;;;;;4.27;1.93;;;;;;;;;;5047893;28;20452;-47
2022/09/18 12:14:34;;;;;;;1.80;1.70;;;;;;;;;;5053774;28;20435;-47
2022/09/18 12:17:08;;;;;;;3.30;2.30;;;;;;;;;;5045672;28;20441;-48
2022/09/18 12:19:49;;;;;;;5.63;4.47;;;;;;;;;;5051858;28;20469;-47
2022/09/18 12:22:34;;;;;;;5.70;2.00;;;;;;;;;;5035786;28;20449;-49
2022/09/18 12:25:00;;;;;;;3.27;2.33;;;;;;;;;;5034750;28;20486;-47
2022/09/18 12:27:44;;;;;;;7.53;2.73;;;;;;;;;;5048071;28;20527;-48
2022/09/18 12:30:11;;;;;;;3.97;2.43;;;;;;;;;;5051508;28;20416;-46
2022/09/18 12:33:01;;;;;;;4.00;3.10;;;;;;;;;;5043168;28;20478;-46
2022/09/18 12:35:46;;;;;;;5.20;3.20;;;;;;;;;;5035342;28;20470;-48
2022/09/18 12:38:12;;;;;;;5.33;3.30;;;;;;;;;;5038971;28;20455;-46
2022/09/18 12:40:50;;;;;;;8.37;3.67;;;;;;;;;;5053627;28;20914;-47
2022/09/18 12:43:25;;;;;;;12.80;3.83;;;;;;;;;;5039546;28;20785;-46
2022/09/18 12:45:56;;;;;;;3.87;3.47;;;;;;;;;;5043199;28;20842;-49
2022/09/18 12:48:33;;;;;;;5.37;3.10;;;;;;;;;;5047006;28;20416;-48
2022/09/18 12:51:07;;;;;;;7.80;3.70;;;;;;;;;;5041121;28;20418;-49
2022/09/18 12:53:40;;;;;;;4.80;3.30;;;;;;;;;;5037142;28;20760;-48
2022/09/18 12:56:27;;;;;;;4.27;3.00;;;;;;;;;;5033585;28;20446;-46
2022/09/18 12:58:53;;;;;;;3.83;3.10;;;;;;;;;;5032794;28;20982;-46
2022/09/18 13:01:32;;;;;;;2.80;2.53;;;;;;;;;;5033508;28;20445;-47
2022/09/18 13:04:28;;;;;;;5.60;2.70;;;;;;;;;;5047240;28;20422;-50
2022/09/18 13:07:07;;;;;;;8.40;2.40;;;;;;;;;;5036719;28;20440;-47
2022/09/18 13:09:44;;;;;;;5.67;2.37;;;;;;;;;;5046017;28;20932;-47
2022/09/18 13:12:15;;;;;;;5.27;2.70;;;;;;;;;;5053531;28;20410;-47
2022/09/18 13:14:45;;;;;;;4.23;2.43;;;;;;;;;;5033472;28;20518;-48
2022/09/18 13:17:16;;;;;;;2.10;1.80;;;;;;;;;;5033595;28;20435;-48
2022/09/18 13:20:05;;;;;;;4.87;2.00;;;;;;;;;;5047659;28;20512;-46
2022/09/18 13:22:35;;;;;;;4.83;2.30;;;;;;;;;;5032474;28;20982;-46
2022/09/18 13:25:02;;;;;;;4.33;2.10;;;;;;;;;;5042040;28;20985;-47
2022/09/18 13:27:30;;;;;;;4.23;1.97;;;;;;;;;;5051645;28;20856;-48
2022/09/18 13:29:58;;;;;;;3.63;2.70;;;;;;;;;;5038020;28;20416;-46
2022/09/18 13:32:30;;;;;;;6.00;2.97;;;;;;;;;;5045832;28;20419;-46
2022/09/18 13:34:59;;;;;;;2.80;2.60;;;;;;;;;;5052455;28;20411;-47
2022/09/18 13:37:26;;;;;;;4.10;2.07;;;;;;;;;;5042349;28;20793;-47
2022/09/18 13:39:54;;;;;;;2.80;2.20;;;;;;;;;;5031984;28;21214;-48
2022/09/18 13:42:34;;;;;;;6.03;5.50;;;;;;;;;;5048341;28;20977;-48
2022/09/18 13:45:03;;;;;;;2.60;2.10;;;;;;;;;;5050993;28;20414;-49
2022/09/18 13:47:29;;;;;;;3.23;1.90;;;;;;;;;;5042753;28;20439;-47
2022/09/18 13:49:56;;;;;;;11.67;1.70;;;;;;;;;;5051710;28;20458;-48
2022/09/18 13:52:35;;;;;;;2.37;1.17;;;;;;;;;;5039713;28;20419;-45
2022/09/18 13:55:13;;;;;;;2.23;1.80;;;;;;;;;;5033292;28;20790;-46
2022/09/18 13:57:40;;;;;;;6.93;2.37;;;;;;;;;;5034155;28;20495;-47
2022/09/18 14:00:18;;;;;;;8.83;2.07;;;;;;;;;;5051998;28;21309;-48
2022/09/18 14:02:44;;;;;;;4.90;2.10;;;;;;;;;;5032531;28;20429;-48
2022/09/18 14:05:19;;;;;;;11.93;2.30;;;;;;;;;;5044876;28;20424;-48
2022/09/18 14:07:50;;;;;;;5.10;2.10;;;;;;;;;;5050746;28;20417;-49
2022/09/18 14:10:30;;;;;;;2.70;1.90;;;;;;;;;;5031960;28;20417;-49
2022/09/18 14:13:02;;;;;;;7.40;1.90;;;;;;;;;;5032498;28;20424;-48
2022/09/18 14:15:28;;;;;;;5.97;1.70;;;;;;;;;;5042272;28;20425;-48
2022/09/18 14:18:13;;;;;;;3.53;1.80;;;;;;;;;;5049347;28;20499;-46
2022/09/18 14:20:39;;;;;;;2.30;2.20;;;;;;;;;;5032968;28;20781;-48
2022/09/18 14:23:24;;;;;;;2.70;1.73;;;;;;;;;;5036604;28;20937;-47
2022/09/18 14:25:51;;;;;;;11.70;9.63;;;;;;;;;;5042916;28;20424;-48
2022/09/18 14:28:20;;;;;;;2.93;2.03;;;;;;;;;;5049827;28;20419;-48
2022/09/18 14:31:06;;;;;;;3.90;2.00;;;;;;;;;;5031673;28;20786;-48
2022/09/18 14:33:33;;;;;;;3.53;1.70;;;;;;;;;;5041818;28;20936;-48
2022/09/18 14:36:05;;;;;;;3.03;1.50;;;;;;;;;;5046785;28;20417;-48
2022/09/18 14:38:33;;;;;;;5.70;1.60;;;;;;;;;;5051258;28;20826;-47
2022/09/18 14:41:04;;;;;;;4.23;1.50;;;;;;;;;;5051043;28;20420;-48
2022/09/18 14:43:31;;;;;;;6.73;3.63;;;;;;;;;;5042121;28;20472;-50
2022/09/18 14:45:57;;;;;;;4.60;1.83;;;;;;;;;;5031742;28;20943;-48
2022/09/18 14:48:26;;;;;;;4.83;1.60;;;;;;;;;;5039724;28;20413;-48
2022/09/18 14:51:03;;;;;;;59.50;26.77;;;;;;;;;;5051684;28;20437;-46
2022/09/18 14:53:29;;;;;;;5.90;2.13;;;;;;;;;;5032550;28;20415;-48
2022/09/18 14:56:04;;;;;;;10.33;2.00;;;;;;;;;;5035132;28;20413;-49